Terminal Aerodrome Forecast
Issued by NWS

Home | Current Version | Previous Version | Text Only | Print | Product List | Glossary On
Versions: 1 2 3 4 5 6 7 8 9 10 11 12 13 14 15 16 17 18 19 20 21
323
FTUS44 KCRP 290843 AAA
TAFALI
TAF AMD
KALI 290843Z 2909/3006 14012G22KT 6SM HZ OVC020
     FM291400 17018G25KT P6SM BKN025
     FM291900 14015G22KT P6SM SCT035
     FM300200 14013KT 6SM BR BKN015=

USA.gov is the U.S. government's official web portal to all federal, state and local government web resources and services.